sensor_id;sensor_type;location;lat;lon;timestamp;temperature;humidity
14357;DHT22;7262;48.764;9.166;2023-03-01T00:30:56;-0.80;99.90
14357;DHT22;7262;48.764;9.166;2023-03-01T00:33:28;-0.80;99.90
14357;DHT22;7262;48.764;9.166;2023-03-01T00:35:57;-0.80;99.90
14357;DHT22;7262;48.764;9.166;2023-03-01T00:38:23;-0.90;99.90
14357;DHT22;7262;48.764;9.166;2023-03-01T00:40:50;-0.90;99.90
14357;DHT22;7262;48.764;9.166;2023-03-01T00:43:17;-0.80;99.90
14357;DHT22;7262;48.764;9.166;2023-03-01T00:45:44;-0.80;99.90
14357;DHT22;7262;48.764;9.166;2023-03-01T00:48:14;-0.90;99.90
14357;DHT22;7262;48.764;9.166;2023-03-01T00:50:41;-0.80;99.90
14357;DHT22;7262;48.764;9.166;2023-03-01T00:53:10;-0.90;99.90
14357;DHT22;7262;48.764;9.166;2023-03-01T00:55:39;-0.80;99.90
14357;DHT22;7262;48.764;9.166;2023-03-01T00:58:06;-0.80;99.90
14357;DHT22;7262;48.764;9.166;2023-03-01T01:00:32;-0.90;99.90
14357;DHT22;7262;48.764;9.166;2023-03-01T01:03:02;-0.90;99.90
14357;DHT22;7262;48.764;9.166;2023-03-01T01:05:30;-0.90;99.90
14357;DHT22;7262;48.764;9.166;2023-03-01T01:07:56;-0.90;99.90
14357;DHT22;7262;48.764;9.166;2023-03-01T01:10:23;-0.90;99.90
14357;DHT22;7262;48.764;9.166;2023-03-01T01:12:50;-1.00;99.90
14357;DHT22;7262;48.764;9.166;2023-03-01T01:15:17;-0.90;99.90
14357;DHT22;7262;48.764;9.166;2023-03-01T01:17:44;-0.90;99.90
14357;DHT22;7262;48.764;9.166;2023-03-01T01:20:11;-0.90;99.90
14357;DHT22;7262;48.764;9.166;2023-03-01T01:22:40;-0.90;99.90
14357;DHT22;7262;48.764;9.166;2023-03-01T01:25:07;-1.00;99.90
14357;DHT22;7262;48.764;9.166;2023-03-01T01:27:34;-1.00;99.90
14357;DHT22;7262;48.764;9.166;2023-03-01T01:30:01;-1.00;99.90
14357;DHT22;7262;48.764;9.166;2023-03-01T01:32:28;-0.90;99.90
14357;DHT22;7262;48.764;9.166;2023-03-01T01:34:55;-0.90;99.90
14357;DHT22;7262;48.764;9.166;2023-03-01T01:37:21;-0.90;99.90
14357;DHT22;7262;48.764;9.166;2023-03-01T01:39:57;-1.00;99.90
14357;DHT22;7262;48.764;9.166;2023-03-01T01:42:25;-1.00;99.90
14357;DHT22;7262;48.764;9.166;2023-03-01T01:47:34;-1.00;99.90
14357;DHT22;7262;48.764;9.166;2023-03-01T01:50:01;-1.00;99.90
14357;DHT22;7262;48.764;9.166;2023-03-01T01:52:29;-1.00;99.90
14357;DHT22;7262;48.764;9.166;2023-03-01T01:54:59;-1.00;99.90
14357;DHT22;7262;48.764;9.166;2023-03-01T01:57:32;-0.90;99.90
14357;DHT22;7262;48.764;9.166;2023-03-01T02:00:02;-0.80;99.90
14357;DHT22;7262;48.764;9.166;2023-03-01T02:02:30;-0.70;99.90
14357;DHT22;7262;48.764;9.166;2023-03-01T02:04:59;-0.60;99.90
14357;DHT22;7262;48.764;9.166;2023-03-01T02:07:28;-0.50;99.90
14357;DHT22;7262;48.764;9.166;2023-03-01T02:09:56;-0.40;99.90
14357;DHT22;7262;48.764;9.166;2023-03-01T02:12:25;-0.30;99.90
14357;DHT22;7262;48.764;9.166;2023-03-01T02:14:52;-0.20;99.90
14357;DHT22;7262;48.764;9.166;2023-03-01T02:17:22;-0.10;99.90
14357;DHT22;7262;48.764;9.166;2023-03-01T02:19:52;0.00;99.90
14357;DHT22;7262;48.764;9.166;2023-03-01T02:22:24;0.10;99.90
14357;DHT22;7262;48.764;9.166;2023-03-01T02:24:56;0.20;99.90
14357;DHT22;7262;48.764;9.166;2023-03-01T02:27:26;0.20;99.90
14357;DHT22;7262;48.764;9.166;2023-03-01T02:29:57;0.30;99.90
14357;DHT22;7262;48.764;9.166;2023-03-01T02:32:24;0.30;99.90
14357;DHT22;7262;48.764;9.166;2023-03-01T02:34:50;0.30;99.90
14357;DHT22;7262;48.764;9.166;2023-03-01T02:37:17;0.40;99.90
14357;DHT22;7262;48.764;9.166;2023-03-01T02:39:51;0.40;99.90
14357;DHT22;7262;48.764;9.166;2023-03-01T02:42:20;0.40;99.90
14357;DHT22;7262;48.764;9.166;2023-03-01T02:44:49;0.40;99.90
14357;DHT22;7262;48.764;9.166;2023-03-01T02:47:21;0.40;99.90
14357;DHT22;7262;48.764;9.166;2023-03-01T02:49:48;0.30;99.90
14357;DHT22;7262;48.764;9.166;2023-03-01T02:52:27;0.30;99.90
14357;DHT22;7262;48.764;9.166;2023-03-01T02:57:35;0.30;99.90
14357;DHT22;7262;48.764;9.166;2023-03-01T03:00:03;0.30;99.90
14357;DHT22;7262;48.764;9.166;2023-03-01T03:02:34;0.30;99.90
14357;DHT22;7262;48.764;9.166;2023-03-01T03:05:04;0.30;99.90
14357;DHT22;7262;48.764;9.166;2023-03-01T03:07:33;0.30;99.90
14357;DHT22;7262;48.764;9.166;2023-03-01T03:10:00;0.30;99.90
14357;DHT22;7262;48.764;9.166;2023-03-01T03:12:27;0.30;99.90
14357;DHT22;7262;48.764;9.166;2023-03-01T03:14:54;0.40;99.90
14357;DHT22;7262;48.764;9.166;2023-03-01T03:17:21;0.30;99.90
14357;DHT22;7262;48.764;9.166;2023-03-01T03:19:49;0.30;99.90
14357;DHT22;7262;48.764;9.166;2023-03-01T03:22:16;0.30;99.90
14357;DHT22;7262;48.764;9.166;2023-03-01T03:24:42;0.30;99.90
14357;DHT22;7262;48.764;9.166;2023-03-01T03:27:09;0.30;99.90
14357;DHT22;7262;48.764;9.166;2023-03-01T03:29:36;0.30;99.90
14357;DHT22;7262;48.764;9.166;2023-03-01T03:32:03;0.40;99.90
14357;DHT22;7262;48.764;9.166;2023-03-01T03:34:29;0.40;99.90
14357;DHT22;7262;48.764;9.166;2023-03-01T03:36:58;0.40;99.90
14357;DHT22;7262;48.764;9.166;2023-03-01T03:39:26;0.50;99.90
14357;DHT22;7262;48.764;9.166;2023-03-01T03:42:00;0.50;99.90
14357;DHT22;7262;48.764;9.166;2023-03-01T03:44:27;0.40;99.90
14357;DHT22;7262;48.764;9.166;2023-03-01T03:46:53;0.40;99.90
14357;DHT22;7262;48.764;9.166;2023-03-01T03:49:20;0.50;99.90
14357;DHT22;7262;48.764;9.166;2023-03-01T03:51:47;0.40;99.90
14357;DHT22;7262;48.764;9.166;2023-03-01T03:54:15;0.40;99.90
14357;DHT22;7262;48.764;9.166;2023-03-01T03:56:42;0.50;99.90
14357;DHT22;7262;48.764;9.166;2023-03-01T03:59:09;0.50;99.90
14357;DHT22;7262;48.764;9.166;2023-03-01T04:01:36;0.50;99.90
14357;DHT22;7262;48.764;9.166;2023-03-01T04:04:05;0.50;99.90
14357;DHT22;7262;48.764;9.166;2023-03-01T04:06:33;0.50;99.90
14357;DHT22;7262;48.764;9.166;2023-03-01T04:08:59;0.50;99.90
14357;DHT22;7262;48.764;9.166;2023-03-01T04:11:29;0.50;99.90
14357;DHT22;7262;48.764;9.166;2023-03-01T04:13:57;0.50;99.90
14357;DHT22;7262;48.764;9.166;2023-03-01T04:16:24;0.50;99.90
14357;DHT22;7262;48.764;9.166;2023-03-01T04:18:51;0.60;99.90
14357;DHT22;7262;48.764;9.166;2023-03-01T04:21:19;0.60;99.90
14357;DHT22;7262;48.764;9.166;2023-03-01T04:23:46;0.60;99.90
14357;DHT22;7262;48.764;9.166;2023-03-01T04:26:13;0.60;99.90
14357;DHT22;7262;48.764;9.166;2023-03-01T04:28:41;0.50;99.90
14357;DHT22;7262;48.764;9.166;2023-03-01T04:31:11;0.50;99.90
14357;DHT22;7262;48.764;9.166;2023-03-01T04:33:43;0.60;99.90
14357;DHT22;7262;48.764;9.166;2023-03-01T04:36:10;0.50;99.90
14357;DHT22;7262;48.764;9.166;2023-03-01T04:38:38;0.60;99.90
14357;DHT22;7262;48.764;9.166;2023-03-01T04:41:05;0.60;99.90
14357;DHT22;7262;48.764;9.166;2023-03-01T04:43:33;0.50;99.90
14357;DHT22;7262;48.764;9.166;2023-03-01T04:46:02;0.50;99.90
14357;DHT22;7262;48.764;9.166;2023-03-01T04:48:30;0.50;99.90
14357;DHT22;7262;48.764;9.166;2023-03-01T04:50:58;0.50;99.90
14357;DHT22;7262;48.764;9.166;2023-03-01T04:53:25;0.50;99.90
14357;DHT22;7262;48.764;9.166;2023-03-01T04:55:52;0.50;99.90
14357;DHT22;7262;48.764;9.166;2023-03-01T04:58:19;0.50;99.90
14357;DHT22;7262;48.764;9.166;2023-03-01T05:00:46;0.50;99.90
14357;DHT22;7262;48.764;9.166;2023-03-01T05:03:15;0.60;99.90
14357;DHT22;7262;48.764;9.166;2023-03-01T05:05:44;0.60;99.90
14357;DHT22;7262;48.764;9.166;2023-03-01T05:08:11;0.60;99.90
14357;DHT22;7262;48.764;9.166;2023-03-01T05:10:43;0.60;99.90
14357;DHT22;7262;48.764;9.166;2023-03-01T05:13:12;0.70;99.90
14357;DHT22;7262;48.764;9.166;2023-03-01T05:15:40;0.70;99.90
14357;DHT22;7262;48.764;9.166;2023-03-01T05:18:09;0.70;99.90
14357;DHT22;7262;48.764;9.166;2023-03-01T05:20:38;0.80;99.90
14357;DHT22;7262;48.764;9.166;2023-03-01T05:23:07;0.80;99.90
14357;DHT22;7262;48.764;9.166;2023-03-01T05:25:34;0.80;99.90
14357;DHT22;7262;48.764;9.166;2023-03-01T05:28:06;0.90;99.90
14357;DHT22;7262;48.764;9.166;2023-03-01T05:30:33;0.90;99.90
14357;DHT22;7262;48.764;9.166;2023-03-01T05:33:00;1.00;99.90
14357;DHT22;7262;48.764;9.166;2023-03-01T05:35:27;1.00;99.90
14357;DHT22;7262;48.764;9.166;2023-03-01T05:37:56;0.90;99.90
14357;DHT22;7262;48.764;9.166;2023-03-01T05:40:23;0.90;99.90
14357;DHT22;7262;48.764;9.166;2023-03-01T05:42:51;0.90;99.90
14357;DHT22;7262;48.764;9.166;2023-03-01T05:45:18;1.00;99.90
14357;DHT22;7262;48.764;9.166;2023-03-01T05:47:46;1.10;99.90
14357;DHT22;7262;48.764;9.166;2023-03-01T05:50:13;1.20;99.90
14357;DHT22;7262;48.764;9.166;2023-03-01T05:52:44;1.20;99.90
14357;DHT22;7262;48.764;9.166;2023-03-01T05:55:13;1.10;99.90
14357;DHT22;7262;48.764;9.166;2023-03-01T05:57:40;1.20;99.90
14357;DHT22;7262;48.764;9.166;2023-03-01T06:00:08;1.20;99.90
14357;DHT22;7262;48.764;9.166;2023-03-01T06:02:35;1.20;99.90
14357;DHT22;7262;48.764;9.166;2023-03-01T06:05:03;1.20;99.90
14357;DHT22;7262;48.764;9.166;2023-03-01T06:10:34;1.20;99.90
14357;DHT22;7262;48.764;9.166;2023-03-01T06:13:02;1.20;99.90
14357;DHT22;7262;48.764;9.166;2023-03-01T06:15:28;1.20;99.90
14357;DHT22;7262;48.764;9.166;2023-03-01T06:17:55;1.10;99.90
14357;DHT22;7262;48.764;9.166;2023-03-01T06:20:23;1.20;99.90
14357;DHT22;7262;48.764;9.166;2023-03-01T06:22:50;1.30;99.90
14357;DHT22;7262;48.764;9.166;2023-03-01T06:25:18;1.20;99.90
14357;DHT22;7262;48.764;9.166;2023-03-01T06:27:47;1.30;99.90
14357;DHT22;7262;48.764;9.166;2023-03-01T06:30:16;1.20;99.90
14357;DHT22;7262;48.764;9.166;2023-03-01T06:32:43;1.30;99.90
14357;DHT22;7262;48.764;9.166;2023-03-01T06:35:10;1.30;99.90
14357;DHT22;7262;48.764;9.166;2023-03-01T06:37:37;1.30;99.90
14357;DHT22;7262;48.764;9.166;2023-03-01T06:40:05;1.30;99.90
14357;DHT22;7262;48.764;9.166;2023-03-01T06:42:34;1.30;99.90
14357;DHT22;7262;48.764;9.166;2023-03-01T06:45:02;1.30;99.90
14357;DHT22;7262;48.764;9.166;2023-03-01T06:47:30;1.40;99.90
14357;DHT22;7262;48.764;9.166;2023-03-01T06:49:58;1.30;99.90
14357;DHT22;7262;48.764;9.166;2023-03-01T06:52:25;1.30;99.90
14357;DHT22;7262;48.764;9.166;2023-03-01T06:54:52;1.20;99.90
14357;DHT22;7262;48.764;9.166;2023-03-01T06:57:19;1.30;99.90
14357;DHT22;7262;48.764;9.166;2023-03-01T06:59:46;1.30;99.90
14357;DHT22;7262;48.764;9.166;2023-03-01T07:02:14;1.40;99.90
14357;DHT22;7262;48.764;9.166;2023-03-01T07:04:41;1.40;99.90
14357;DHT22;7262;48.764;9.166;2023-03-01T07:07:08;1.50;99.90
14357;DHT22;7262;48.764;9.166;2023-03-01T07:09:35;1.60;99.90
14357;DHT22;7262;48.764;9.166;2023-03-01T07:12:02;1.70;99.90
14357;DHT22;7262;48.764;9.166;2023-03-01T07:14:29;1.80;99.90
14357;DHT22;7262;48.764;9.166;2023-03-01T07:16:56;1.70;99.90
14357;DHT22;7262;48.764;9.166;2023-03-01T07:19:24;1.50;99.90
14357;DHT22;7262;48.764;9.166;2023-03-01T07:21:51;1.60;99.90
14357;DHT22;7262;48.764;9.166;2023-03-01T07:24:18;1.50;99.90
14357;DHT22;7262;48.764;9.166;2023-03-01T07:26:47;1.60;99.90
14357;DHT22;7262;48.764;9.166;2023-03-01T07:29:14;1.60;99.90
14357;DHT22;7262;48.764;9.166;2023-03-01T07:31:41;1.60;99.90
14357;DHT22;7262;48.764;9.166;2023-03-01T07:34:07;1.70;99.90
14357;DHT22;7262;48.764;9.166;2023-03-01T07:36:38;1.60;99.90
14357;DHT22;7262;48.764;9.166;2023-03-01T07:39:09;1.70;99.90
14357;DHT22;7262;48.764;9.166;2023-03-01T07:41:36;1.60;99.90
14357;DHT22;7262;48.764;9.166;2023-03-01T07:44:03;1.60;99.90
14357;DHT22;7262;48.764;9.166;2023-03-01T07:46:29;1.60;99.90
14357;DHT22;7262;48.764;9.166;2023-03-01T07:48:56;1.70;99.90
14357;DHT22;7262;48.764;9.166;2023-03-01T07:51:24;1.80;99.90
14357;DHT22;7262;48.764;9.166;2023-03-01T07:53:52;1.70;99.90
14357;DHT22;7262;48.764;9.166;2023-03-01T07:56:19;1.50;99.90
14357;DHT22;7262;48.764;9.166;2023-03-01T07:58:48;1.70;99.90
14357;DHT22;7262;48.764;9.166;2023-03-01T08:01:16;2.00;99.90
14357;DHT22;7262;48.764;9.166;2023-03-01T08:03:44;2.00;99.90
14357;DHT22;7262;48.764;9.166;2023-03-01T08:06:12;1.90;99.90
14357;DHT22;7262;48.764;9.166;2023-03-01T08:08:39;2.10;99.90
14357;DHT22;7262;48.764;9.166;2023-03-01T08:11:09;2.10;99.90
14357;DHT22;7262;48.764;9.166;2023-03-01T08:13:37;2.40;99.90
14357;DHT22;7262;48.764;9.166;2023-03-01T08:16:04;2.40;99.90
14357;DHT22;7262;48.764;9.166;2023-03-01T08:18:31;2.40;99.90
14357;DHT22;7262;48.764;9.166;2023-03-01T08:21:01;2.30;99.90
14357;DHT22;7262;48.764;9.166;2023-03-01T08:23:29;2.20;99.90
14357;DHT22;7262;48.764;9.166;2023-03-01T08:26:02;2.30;99.90
14357;DHT22;7262;48.764;9.166;2023-03-01T08:28:31;2.50;99.90
14357;DHT22;7262;48.764;9.166;2023-03-01T08:30:58;2.70;99.90
14357;DHT22;7262;48.764;9.166;2023-03-01T08:33:24;2.70;99.90
14357;DHT22;7262;48.764;9.166;2023-03-01T08:35:51;2.90;99.90
14357;DHT22;7262;48.764;9.166;2023-03-01T08:38:18;2.70;99.90
14357;DHT22;7262;48.764;9.166;2023-03-01T08:40:44;2.50;99.90
14357;DHT22;7262;48.764;9.166;2023-03-01T08:43:13;2.50;99.90
14357;DHT22;7262;48.764;9.166;2023-03-01T08:45:41;2.60;99.90
14357;DHT22;7262;48.764;9.166;2023-03-01T08:48:08;2.80;99.90
14357;DHT22;7262;48.764;9.166;2023-03-01T08:50:35;2.50;99.90
14357;DHT22;7262;48.764;9.166;2023-03-01T08:53:02;2.60;99.90
14357;DHT22;7262;48.764;9.166;2023-03-01T08:55:28;2.60;99.90
14357;DHT22;7262;48.764;9.166;2023-03-01T08:57:55;2.70;99.90
14357;DHT22;7262;48.764;9.166;2023-03-01T09:00:24;2.80;99.90
14357;DHT22;7262;48.764;9.166;2023-03-01T09:02:52;3.00;99.90
14357;DHT22;7262;48.764;9.166;2023-03-01T09:05:19;3.00;99.90
14357;DHT22;7262;48.764;9.166;2023-03-01T09:07:45;3.10;99.90
14357;DHT22;7262;48.764;9.166;2023-03-01T09:10:12;3.80;99.90
14357;DHT22;7262;48.764;9.166;2023-03-01T09:12:39;4.40;99.90
14357;DHT22;7262;48.764;9.166;2023-03-01T09:15:06;4.90;99.90
14357;DHT22;7262;48.764;9.166;2023-03-01T09:17:33;4.40;99.90
14357;DHT22;7262;48.764;9.166;2023-03-01T09:20:01;4.20;99.90
14357;DHT22;7262;48.764;9.166;2023-03-01T09:22:30;4.90;99.90
14357;DHT22;7262;48.764;9.166;2023-03-01T09:24:59;5.50;99.90
14357;DHT22;7262;48.764;9.166;2023-03-01T09:27:26;6.40;99.90
14357;DHT22;7262;48.764;9.166;2023-03-01T09:29:53;6.90;99.90
14357;DHT22;7262;48.764;9.166;2023-03-01T09:32:22;7.30;99.90
14357;DHT22;7262;48.764;9.166;2023-03-01T09:34:48;7.80;99.90
14357;DHT22;7262;48.764;9.166;2023-03-01T09:37:31;8.10;99.90
14357;DHT22;7262;48.764;9.166;2023-03-01T09:39:59;8.40;99.90
14357;DHT22;7262;48.764;9.166;2023-03-01T09:42:26;8.60;99.90
14357;DHT22;7262;48.764;9.166;2023-03-01T09:44:54;8.20;99.90
14357;DHT22;7262;48.764;9.166;2023-03-01T09:47:25;8.20;99.90
14357;DHT22;7262;48.764;9.166;2023-03-01T09:49:58;8.10;99.90
14357;DHT22;7262;48.764;9.166;2023-03-01T09:52:29;9.10;99.90
14357;DHT22;7262;48.764;9.166;2023-03-01T09:55:01;9.60;99.90
14357;DHT22;7262;48.764;9.166;2023-03-01T09:57:36;9.20;99.90
14357;DHT22;7262;48.764;9.166;2023-03-01T10:00:12;9.10;99.90
14357;DHT22;7262;48.764;9.166;2023-03-01T10:05:31;7.50;99.90
14357;DHT22;7262;48.764;9.166;2023-03-01T10:08:05;6.60;99.90
14357;DHT22;7262;48.764;9.166;2023-03-01T10:10:37;6.80;99.90
14357;DHT22;7262;48.764;9.166;2023-03-01T10:13:09;7.30;99.90
14357;DHT22;7262;48.764;9.166;2023-03-01T10:15:38;7.50;99.90
14357;DHT22;7262;48.764;9.166;2023-03-01T10:20:43;9.20;99.90
14357;DHT22;7262;48.764;9.166;2023-03-01T10:23:11;10.00;99.90
14357;DHT22;7262;48.764;9.166;2023-03-01T10:25:47;10.80;99.90
14357;DHT22;7262;48.764;9.166;2023-03-01T10:28:20;10.40;99.90
14357;DHT22;7262;48.764;9.166;2023-03-01T10:30:50;10.00;99.90
14357;DHT22;7262;48.764;9.166;2023-03-01T10:33:17;9.80;99.90
14357;DHT22;7262;48.764;9.166;2023-03-01T10:35:45;9.30;99.90
14357;DHT22;7262;48.764;9.166;2023-03-01T10:38:13;9.60;99.90
14357;DHT22;7262;48.764;9.166;2023-03-01T10:40:51;10.00;99.90
14357;DHT22;7262;48.764;9.166;2023-03-01T10:43:18;10.10;99.90
14357;DHT22;7262;48.764;9.166;2023-03-01T10:45:45;10.40;99.90
14357;DHT22;7262;48.764;9.166;2023-03-01T10:48:13;10.10;99.90
14357;DHT22;7262;48.764;9.166;2023-03-01T10:50:41;9.90;99.90
14357;DHT22;7262;48.764;9.166;2023-03-01T10:53:18;9.80;99.90
14357;DHT22;7262;48.764;9.166;2023-03-01T10:55:46;9.50;99.90
14357;DHT22;7262;48.764;9.166;2023-03-01T10:58:18;9.70;99.90
14357;DHT22;7262;48.764;9.166;2023-03-01T11:00:46;9.90;99.90
14357;DHT22;7262;48.764;9.166;2023-03-01T11:03:23;10.10;99.90
14357;DHT22;7262;48.764;9.166;2023-03-01T11:05:57;10.50;99.90
14357;DHT22;7262;48.764;9.166;2023-03-01T11:08:32;10.30;99.90
14357;DHT22;7262;48.764;9.166;2023-03-01T11:14:05;10.00;99.90
14357;DHT22;7262;48.764;9.166;2023-03-01T11:16:33;9.60;99.90
14357;DHT22;7262;48.764;9.166;2023-03-01T11:19:07;10.10;99.90
14357;DHT22;7262;48.764;9.166;2023-03-01T11:21:40;10.90;99.90
14357;DHT22;7262;48.764;9.166;2023-03-01T11:24:15;11.70;99.90
14357;DHT22;7262;48.764;9.166;2023-03-01T11:26:44;11.10;99.90
14357;DHT22;7262;48.764;9.166;2023-03-01T11:29:16;10.40;99.90
14357;DHT22;7262;48.764;9.166;2023-03-01T11:31:44;10.60;99.90
14357;DHT22;7262;48.764;9.166;2023-03-01T11:34:13;10.60;99.90
14357;DHT22;7262;48.764;9.166;2023-03-01T11:44:29;10.90;99.90
14357;DHT22;7262;48.764;9.166;2023-03-01T11:47:09;11.00;99.90
14357;DHT22;7262;48.764;9.166;2023-03-01T11:49:45;11.10;99.90
14357;DHT22;7262;48.764;9.166;2023-03-01T11:52:18;10.90;99.90
14357;DHT22;7262;48.764;9.166;2023-03-01T11:54:52;10.10;99.90
14357;DHT22;7262;48.764;9.166;2023-03-01T11:57:33;10.90;99.90
14357;DHT22;7262;48.764;9.166;2023-03-01T12:00:10;11.70;99.90
14357;DHT22;7262;48.764;9.166;2023-03-01T12:02:48;12.10;99.90
14357;DHT22;7262;48.764;9.166;2023-03-01T12:05:40;12.90;99.90
14357;DHT22;7262;48.764;9.166;2023-03-01T12:08:11;12.80;99.90
14357;DHT22;7262;48.764;9.166;2023-03-01T12:10:43;12.90;99.90
14357;DHT22;7262;48.764;9.166;2023-03-01T12:13:35;12.70;99.90
14357;DHT22;7262;48.764;9.166;2023-03-01T12:16:26;13.70;99.90
14357;DHT22;7262;48.764;9.166;2023-03-01T12:19:01;13.50;99.90
14357;DHT22;7262;48.764;9.166;2023-03-01T12:21:30;13.40;99.90
14357;DHT22;7262;48.764;9.166;2023-03-01T12:24:05;13.80;99.90
14357;DHT22;7262;48.764;9.166;2023-03-01T12:26:35;13.90;99.90
14357;DHT22;7262;48.764;9.166;2023-03-01T12:29:16;13.30;99.90
14357;DHT22;7262;48.764;9.166;2023-03-01T12:31:53;12.70;99.90
14357;DHT22;7262;48.764;9.166;2023-03-01T12:34:33;12.30;99.90
14357;DHT22;7262;48.764;9.166;2023-03-01T12:39:51;12.10;99.90
14357;DHT22;7262;48.764;9.166;2023-03-01T12:42:24;12.30;99.90
14357;DHT22;7262;48.764;9.166;2023-03-01T12:45:03;12.30;99.90
14357;DHT22;7262;48.764;9.166;2023-03-01T12:47:39;12.40;99.90
14357;DHT22;7262;48.764;9.166;2023-03-01T12:50:11;12.00;99.90
14357;DHT22;7262;48.764;9.166;2023-03-01T12:52:40;12.10;99.90
14357;DHT22;7262;48.764;9.166;2023-03-01T12:55:15;12.60;99.90
14357;DHT22;7262;48.764;9.166;2023-03-01T12:57:46;13.30;99.90
14357;DHT22;7262;48.764;9.166;2023-03-01T13:00:20;14.20;99.90
14357;DHT22;7262;48.764;9.166;2023-03-01T13:02:58;14.20;99.90
14357;DHT22;7262;48.764;9.166;2023-03-01T13:05:29;14.50;99.90
14357;DHT22;7262;48.764;9.166;2023-03-01T13:08:05;13.50;99.90
14357;DHT22;7262;48.764;9.166;2023-03-01T13:10:36;14.50;99.90
14357;DHT22;7262;48.764;9.166;2023-03-01T13:13:12;14.90;99.90
14357;DHT22;7262;48.764;9.166;2023-03-01T13:15:40;14.40;99.90
14357;DHT22;7262;48.764;9.166;2023-03-01T13:20:52;13.40;99.90
14357;DHT22;7262;48.764;9.166;2023-03-01T13:23:30;13.90;99.90
14357;DHT22;7262;48.764;9.166;2023-03-01T13:26:02;13.70;99.90
14357;DHT22;7262;48.764;9.166;2023-03-01T13:28:36;14.10;99.90
14357;DHT22;7262;48.764;9.166;2023-03-01T13:31:07;14.30;99.90
14357;DHT22;7262;48.764;9.166;2023-03-01T13:33:39;14.60;99.90
14357;DHT22;7262;48.764;9.166;2023-03-01T13:36:08;15.00;99.90
14357;DHT22;7262;48.764;9.166;2023-03-01T13:38:44;14.70;99.90
14357;DHT22;7262;48.764;9.166;2023-03-01T13:41:12;14.10;99.90
14357;DHT22;7262;48.764;9.166;2023-03-01T13:43:40;14.70;99.90
14357;DHT22;7262;48.764;9.166;2023-03-01T13:46:08;13.90;99.90
14357;DHT22;7262;48.764;9.166;2023-03-01T13:48:37;13.20;99.90
14357;DHT22;7262;48.764;9.166;2023-03-01T13:51:05;13.40;99.90
14357;DHT22;7262;48.764;9.166;2023-03-01T13:53:35;13.60;99.90
14357;DHT22;7262;48.764;9.166;2023-03-01T13:56:07;13.80;99.90
14357;DHT22;7262;48.764;9.166;2023-03-01T13:58:44;13.00;99.90
14357;DHT22;7262;48.764;9.166;2023-03-01T14:01:18;12.90;99.90
14357;DHT22;7262;48.764;9.166;2023-03-01T14:03:48;13.30;99.90
14357;DHT22;7262;48.764;9.166;2023-03-01T14:06:15;12.70;99.90
14357;DHT22;7262;48.764;9.166;2023-03-01T14:08:45;12.70;99.90
14357;DHT22;7262;48.764;9.166;2023-03-01T14:11:21;12.10;99.90
14357;DHT22;7262;48.764;9.166;2023-03-01T14:14:00;12.30;99.90
14357;DHT22;7262;48.764;9.166;2023-03-01T14:16:32;12.30;99.90
14357;DHT22;7262;48.764;9.166;2023-03-01T14:19:06;12.70;99.90
14357;DHT22;7262;48.764;9.166;2023-03-01T14:21:35;12.50;99.90
14357;DHT22;7262;48.764;9.166;2023-03-01T14:24:04;12.60;99.90
14357;DHT22;7262;48.764;9.166;2023-03-01T14:26:31;12.40;99.90
14357;DHT22;7262;48.764;9.166;2023-03-01T14:29:01;12.40;99.90
14357;DHT22;7262;48.764;9.166;2023-03-01T14:31:38;12.70;99.90
14357;DHT22;7262;48.764;9.166;2023-03-01T14:34:16;12.50;99.90
14357;DHT22;7262;48.764;9.166;2023-03-01T14:36:44;12.10;99.90
14357;DHT22;7262;48.764;9.166;2023-03-01T14:39:26;12.70;99.90
14357;DHT22;7262;48.764;9.166;2023-03-01T14:42:02;12.70;99.90
14357;DHT22;7262;48.764;9.166;2023-03-01T14:44:33;12.50;99.90
14357;DHT22;7262;48.764;9.166;2023-03-01T14:47:05;12.30;99.90
14357;DHT22;7262;48.764;9.166;2023-03-01T14:49:32;12.60;99.90
14357;DHT22;7262;48.764;9.166;2023-03-01T14:52:04;12.30;99.90
14357;DHT22;7262;48.764;9.166;2023-03-01T14:54:35;12.30;99.90
14357;DHT22;7262;48.764;9.166;2023-03-01T14:57:05;12.70;99.90
14357;DHT22;7262;48.764;9.166;2023-03-01T14:59:33;12.70;99.90
14357;DHT22;7262;48.764;9.166;2023-03-01T15:02:00;12.60;99.90
14357;DHT22;7262;48.764;9.166;2023-03-01T15:04:27;12.10;99.90
14357;DHT22;7262;48.764;9.166;2023-03-01T15:06:55;11.50;99.90
14357;DHT22;7262;48.764;9.166;2023-03-01T15:09:22;11.80;99.90
14357;DHT22;7262;48.764;9.166;2023-03-01T15:11:50;12.40;99.90
14357;DHT22;7262;48.764;9.166;2023-03-01T15:14:28;12.40;99.90
14357;DHT22;7262;48.764;9.166;2023-03-01T15:16:55;12.40;99.90
14357;DHT22;7262;48.764;9.166;2023-03-01T15:19:22;12.40;99.90
14357;DHT22;7262;48.764;9.166;2023-03-01T15:21:52;12.10;99.90
14357;DHT22;7262;48.764;9.166;2023-03-01T15:24:20;11.80;99.90
14357;DHT22;7262;48.764;9.166;2023-03-01T15:26:51;11.40;99.90
14357;DHT22;7262;48.764;9.166;2023-03-01T15:29:21;11.40;99.90
14357;DHT22;7262;48.764;9.166;2023-03-01T15:31:55;11.20;99.90
14357;DHT22;7262;48.764;9.166;2023-03-01T15:34:23;11.20;99.90
14357;DHT22;7262;48.764;9.166;2023-03-01T15:36:51;11.20;99.90
14357;DHT22;7262;48.764;9.166;2023-03-01T15:42:12;11.40;99.90
14357;DHT22;7262;48.764;9.166;2023-03-01T15:44:39;11.10;99.90
14357;DHT22;7262;48.764;9.166;2023-03-01T15:47:08;11.10;99.90
14357;DHT22;7262;48.764;9.166;2023-03-01T15:49:48;11.20;99.90
14357;DHT22;7262;48.764;9.166;2023-03-01T15:52:19;11.20;99.90
14357;DHT22;7262;48.764;9.166;2023-03-01T15:54:54;11.10;99.90
14357;DHT22;7262;48.764;9.166;2023-03-01T15:57:23;10.50;99.90
14357;DHT22;7262;48.764;9.166;2023-03-01T15:59:50;9.90;99.90
14357;DHT22;7262;48.764;9.166;2023-03-01T16:02:16;9.90;99.90
14357;DHT22;7262;48.764;9.166;2023-03-01T16:04:49;10.30;99.90
14357;DHT22;7262;48.764;9.166;2023-03-01T16:07:16;10.20;99.90
14357;DHT22;7262;48.764;9.166;2023-03-01T16:09:43;9.70;99.90
14357;DHT22;7262;48.764;9.166;2023-03-01T16:12:11;9.00;99.90
14357;DHT22;7262;48.764;9.166;2023-03-01T16:14:40;8.70;99.90
14357;DHT22;7262;48.764;9.166;2023-03-01T16:17:07;8.40;99.90
14357;DHT22;7262;48.764;9.166;2023-03-01T16:19:35;8.20;99.90
14357;DHT22;7262;48.764;9.166;2023-03-01T16:22:02;8.10;99.90
14357;DHT22;7262;48.764;9.166;2023-03-01T16:24:29;7.90;99.90
14357;DHT22;7262;48.764;9.166;2023-03-01T16:27:03;7.90;99.90
14357;DHT22;7262;48.764;9.166;2023-03-01T16:29:42;7.80;99.90
14357;DHT22;7262;48.764;9.166;2023-03-01T16:32:08;7.70;99.90
14357;DHT22;7262;48.764;9.166;2023-03-01T16:34:35;7.60;99.90
14357;DHT22;7262;48.764;9.166;2023-03-01T16:37:02;7.60;99.90
14357;DHT22;7262;48.764;9.166;2023-03-01T16:39:29;7.50;99.90
14357;DHT22;7262;48.764;9.166;2023-03-01T16:41:56;7.50;99.90
14357;DHT22;7262;48.764;9.166;2023-03-01T16:44:27;7.40;99.90
14357;DHT22;7262;48.764;9.166;2023-03-01T16:46:57;7.40;99.90
14357;DHT22;7262;48.764;9.166;2023-03-01T16:49:25;7.40;99.90
14357;DHT22;7262;48.764;9.166;2023-03-01T16:51:53;7.20;99.90
14357;DHT22;7262;48.764;9.166;2023-03-01T16:54:20;7.20;99.90
14357;DHT22;7262;48.764;9.166;2023-03-01T16:56:46;7.30;99.90
14357;DHT22;7262;48.764;9.166;2023-03-01T16:59:15;7.20;99.90
14357;DHT22;7262;48.764;9.166;2023-03-01T17:01:43;7.00;99.90
14357;DHT22;7262;48.764;9.166;2023-03-01T17:04:14;7.10;99.90
14357;DHT22;7262;48.764;9.166;2023-03-01T17:06:41;7.00;99.90
14357;DHT22;7262;48.764;9.166;2023-03-01T17:09:08;6.90;99.90
14357;DHT22;7262;48.764;9.166;2023-03-01T17:11:35;6.80;99.90